Latest Weather Observations for Broken Hill Airport

IDN60801

Issued at 6:53 pm EDT Wednesday 29 January 2020 (issued every 10 minutes, with the page automatically refreshed every 10 minutes)

About weather observations | Map of weather stations | Latest weather observations for NSW | Other Formats
Station Details ID: 047048 Name: BROKEN HILL AIRPORT AWS Lat: -32.00 Lon: 141.47 Height: 281.3 m
Data from the previous 72 hours. | See also: Recent months at Broken Hill Airport

Observations are collected in the New South Wales time zone (Eastern Standard Time) which includes daylight savings in the summer period. Therefore 'Rain since 9am' totals and other values are based on the New South Wales time zone, which may differ from local time.

Date/Time
EDT
Temp
°C
App
Temp
°C
Dew
Point
°C
Rel
Hum
%
Delta-T
°C
Wind Press
QNH
hPa
Press
MSL
hPa
Rain since
9am
mm
Dir  Spd
km/h
Gust
km/h
Spd
kts
Gust
kts
29/06:30pm 38.1 31.5 -3.7 7 20.1 SE 22 33 12 18 1011.5 1009.9 0.0
29/06:00pm 37.3 31.2 -2.4 8 19.4 SE 20 32 11 17 1011.9 1010.2 0.0
29/05:30pm 37.6 30.8 -2.2 8 19.5 SE 24 32 13 17 1012.1 1010.4 0.0
29/05:00pm 37.7 32.6 -2.2 8 19.6 ESE 15 26 8 14 1012.5 1010.8 0.0
29/04:30pm 37.6 31.7 -2.2 8 19.5 SSE 19 26 10 14 1012.8 1011.1 0.0
29/04:00pm 36.5 30.5 -3.0 8 19.0 SE 19 30 10 16 1013.1 1011.4 0.0
29/03:30pm 36.7 30.5 -2.9 8 19.1 ESE 20 33 11 18 1013.5 1011.8 0.0
29/03:00pm 36.8 31.0 -1.2 9 18.9 ESE 19 30 10 16 1014.0 1012.3 0.0
29/02:30pm 35.8 29.7 -2.0 9 18.4 E 20 32 11 17 1014.5 1012.9 0.0
29/02:00pm 35.3 28.8 -2.3 9 18.1 ESE 22 35 12 19 1014.8 1013.2 0.0
29/01:30pm 35.2 28.5 -1.0 10 17.8 SE 24 35 13 19 1015.3 1013.7 0.0
29/01:00pm 34.7 27.4 -0.1 11 17.3 ESE 28 37 15 20 1015.9 1014.2 0.0
29/12:30pm 33.4 26.7 -1.0 11 16.7 ESE 24 33 13 18 1016.5 1014.8 0.0
29/12:00pm 33.5 27.0 0.2 12 16.5 ESE 24 33 13 18 1016.8 1015.1 0.0
29/11:30am 31.9 24.6 0.1 13 15.6 ESE 28 35 15 19 1016.9 1015.2 0.0
29/11:00am 31.7 24.5 1.0 14 15.3 ESE 28 35 15 19 1016.9 1015.2 0.0
29/10:30am 30.9 23.8 1.3 15 14.7 ESE 28 39 15 21 1016.9 1015.2 0.0
29/10:00am 29.4 22.6 1.0 16 13.9 ESE 26 33 14 18 1016.9 1015.2 0.0
29/09:30am 28.1 20.9 0.8 17 13.2 ESE 28 35 15 19 1017.0 1015.3 0.0
29/09:00am 26.6 20.9 0.4 18 12.4 ESE 20 26 11 14 1016.8 1015.1 0.0
29/08:30am 25.7 20.4 -0.4 18 12.2 SE 17 20 9 11 1016.6 1014.9 0.0
29/08:00am 25.0 19.4 -0.2 19 11.7 SE 19 22 10 12 1016.3 1014.6 0.0
29/07:30am 24.0 18.4 -0.3 20 11.2 ESE 19 22 10 12 1016.0 1014.3 0.0
29/07:00am 22.9 17.7 0.1 22 10.5 ESE 17 20 9 11 1015.6 1013.9 0.0
29/06:30am 22.1 17.6 -0.6 22 10.2 SE 13 15 7 8 1015.6 1013.9 0.0
29/06:00am 22.0 17.4 -0.7 22 10.2 SE 13 15 7 8 1015.5 1013.8 0.0
29/05:30am 21.7 16.3 -1.6 21 10.3 SSE 17 19 9 10 1015.1 1013.5 0.0
29/05:00am 23.3 18.2 -1.6 19 11.1 SE 15 17 8 9 1015.2 1013.6 0.0
29/04:30am 24.9 19.2 -1.0 18 11.9 SE 19 22 10 12 1015.0 1013.4 0.0
29/04:00am 24.6 19.3 -0.5 19 11.6 SE 17 20 9 11 1015.2 1013.6 0.0
29/03:30am 24.7 19.4 -0.4 19 11.6 SE 17 20 9 11 1015.3 1013.7 0.0
29/03:00am 24.8 19.5 -0.4 19 11.6 SE 17 19 9 10 1015.3 1013.7 0.0
29/02:30am 25.1 19.8 -0.9 18 11.9 SE 17 19 9 10 1015.5 1013.8 0.0
29/02:00am 25.7 19.9 -1.2 17 12.3 SE 19 20 10 11 1015.7 1014.0 0.0
29/01:30am 26.1 20.8 -0.8 17 12.5 SE 17 20 9 11 1015.7 1014.0 0.0
29/01:00am 26.4 20.7 -0.6 17 12.6 SE 19 22 10 12 1015.7 1014.0 0.0
29/12:30am 26.7 20.9 -1.2 16 12.9 SE 19 20 10 11 1015.7 1014.0 0.0
29/12:00am 27.6 21.7 -0.5 16 13.2 SSE 20 26 11 14 1015.7 1014.0 0.0
 
Date/Time
EDT
Temp
°C
App
Temp
°C
Dew
Point
°C
Rel
Hum
%
Delta-T
°C
Wind Press
QNH
hPa
Press
MSL
hPa
Rain since
9am
mm
Dir  Spd
km/h
Gust
km/h
Spd
kts
Gust
kts
28/11:30pm 28.2 22.4 0.0 16 13.5 SSE 20 28 11 15 1015.7 1014.0 0.0
28/11:00pm 28.8 22.7 0.5 16 13.7 SSE 22 28 12 15 1015.3 1013.7 0.0
28/10:30pm 29.4 23.4 1.0 16 13.9 SSE 22 28 12 15 1015.1 1013.5 0.0
28/10:00pm 30.0 23.4 -0.4 14 14.6 SSE 24 32 13 17 1014.7 1013.1 0.0
28/09:30pm 30.8 24.8 -1.9 12 15.4 SSE 20 28 11 15 1014.3 1012.7 0.0
28/09:00pm 31.7 25.4 -1.2 12 15.8 SSE 22 28 12 15 1014.2 1012.5 0.0
28/08:30pm 32.6 26.0 -0.5 12 16.2 SSE 24 32 13 17 1013.9 1012.2 0.0
28/08:00pm 33.4 26.5 0.1 12 16.5 S 26 33 14 18 1013.6 1011.9 0.0
28/07:30pm 34.0 26.6 -0.6 11 17.0 SE 28 39 15 21 1013.2 1011.5 0.0
28/07:00pm 34.5 28.3 2.1 13 16.7 SSE 24 35 13 19 1012.9 1011.2 0.0
28/06:30pm 34.7 28.7 3.3 14 16.5 S 24 32 13 17 1012.8 1011.1 0.0
28/06:00pm 34.7 28.3 3.3 14 16.5 S 26 41 14 22 1012.9 1011.2 0.0
28/05:30pm 35.1 28.8 3.6 14 16.7 SSW 26 41 14 22 1013.0 1011.3 0.0
28/05:00pm 35.6 29.7 4.0 14 16.9 SSW 24 41 13 22 1013.2 1011.5 0.0
28/04:30pm 35.0 28.9 2.5 13 16.9 SSW 24 37 13 20 1013.4 1011.7 0.0
28/04:00pm 35.9 29.9 3.2 13 17.3 S 24 39 13 21 1013.4 1011.7 0.0
28/03:30pm 34.3 28.6 3.0 14 16.4 S 22 39 12 21 1013.7 1012.0 0.0
28/03:00pm 36.0 30.6 4.3 14 17.1 S 22 35 12 19 1014.2 1012.5 0.0
28/02:30pm 34.0 28.1 3.7 15 16.0 SSE 24 35 13 19 1014.6 1013.0 0.0
28/02:00pm 34.7 29.6 4.3 15 16.2 SSE 20 37 11 20 1014.8 1013.2 0.0
28/01:30pm 32.8 27.2 3.7 16 15.2 SSE 22 33 12 18 1015.2 1013.6 0.0
28/01:00pm 32.4 26.8 3.4 16 15.1 SSE 22 33 12 18 1015.6 1013.9 0.0
28/12:30pm 30.9 25.0 3.8 18 14.1 SSE 24 33 13 18 1015.8 1014.1 0.0
28/12:00pm 31.5 25.7 4.3 18 14.3 SSE 24 35 13 19 1015.9 1014.2 0.0
28/11:30am 29.9 24.5 4.5 20 13.3 SSE 22 32 12 17 1016.0 1014.3 0.0
28/11:00am 28.4 23.4 4.6 22 12.3 SE 20 32 11 17 1016.1 1014.4 0.0
28/10:30am 26.7 21.3 4.5 24 11.4 SSE 22 30 12 16 1016.1 1014.4 0.0
28/10:00am 25.6 20.7 5.2 27 10.5 SSE 20 28 11 15 1016.3 1014.6 0.0
28/09:30am 24.0 19.2 5.4 30 9.5 SSE 20 26 11 14 1016.3 1014.6 0.0
28/09:00am 22.8 17.3 6.1 34 8.6 S 24 30 13 16 1016.2 1014.5 0.0
28/08:30am 22.0 15.8 6.3 36 8.1 S 28 32 15 17 1016.1 1014.4 0.0
28/08:00am 21.2 15.3 5.6 36 7.9 S 26 32 14 17 1015.7 1014.0 0.0
28/07:30am 20.9 15.7 5.7 37 7.7 S 22 32 12 17 1015.3 1013.7 0.0
28/07:00am 20.5 15.7 4.5 35 7.9 S 19 26 10 14 1015.0 1013.4 0.0
28/06:30am 20.6 16.4 3.8 33 8.2 S 15 17 8 9 1014.7 1013.1 0.0
28/06:00am 20.8 17.3 3.5 32 8.4 S 11 15 6 8 1014.5 1012.9 0.0
28/05:30am 22.0 18.2 4.1 31 8.8 S 13 15 7 8 1014.0 1012.3 0.0
28/05:00am 22.2 19.1 3.8 30 9.0 S 9 11 5 6 1013.9 1012.2 0.0
28/04:30am 23.1 19.3 4.1 29 9.4 SSW 13 15 7 8 1013.7 1012.0 0.0
28/04:00am 24.3 20.2 4.6 28 10.0 S 15 20 8 11 1013.8 1012.1 0.0
28/03:30am 24.9 20.5 4.6 27 10.3 S 17 24 9 13 1013.6 1011.9 0.0
28/03:00am 25.7 20.4 4.8 26 10.7 S 22 30 12 16 1013.5 1011.8 0.0
28/02:30am 26.1 21.4 5.1 26 10.8 SSE 19 22 10 12 1013.5 1011.8 0.0
28/02:00am 26.8 21.9 5.1 25 11.2 SSE 20 26 11 14 1013.8 1012.1 0.0
28/01:30am 27.3 21.7 5.6 25 11.4 SSE 24 28 13 15 1013.9 1012.2 0.0
28/01:00am 27.8 22.3 6.0 25 11.5 SSE 24 35 13 19 1013.7 1012.0 0.0
28/12:30am 28.3 22.5 6.4 25 11.7 SSE 26 33 14 18 1013.7 1012.0 0.0
28/12:00am 28.8 22.2 6.2 24 12.1 S 30 37 16 20 1013.5 1011.8 0.0
 
Date/Time
EDT
Temp
°C
App
Temp
°C
Dew
Point
°C
Rel
Hum
%
Delta-T
°C
Wind Press
QNH
hPa
Press
MSL
hPa
Rain since
9am
mm
Dir  Spd
km/h
Gust
km/h
Spd
kts
Gust
kts
27/11:30pm 29.4 24.7 6.1 23 12.5 SE 20 26 11 14 1013.8 1012.1 0.0
27/11:00pm 30.0 24.9 6.0 22 12.9 SE 22 28 12 15 1013.6 1011.9 0.0
27/10:30pm 30.4 26.2 5.6 21 13.2 SE 17 22 9 12 1013.4 1011.7 0.0
27/10:00pm 31.4 26.8 5.8 20 13.8 SE 19 24 10 13 1013.1 1011.4 0.0
27/09:30pm 31.9 27.1 5.4 19 14.2 SSE 20 28 11 15 1012.8 1011.1 0.0
27/09:00pm 32.6 27.7 5.2 18 14.7 SSE 20 28 11 15 1012.5 1010.8 0.0
27/08:30pm 33.4 27.9 4.2 16 15.5 S 22 28 12 15 1012.2 1010.5 0.0
27/08:00pm 34.1 27.6 4.7 16 15.8 SSE 28 33 15 18 1012.0 1010.3 0.0
27/07:30pm 34.7 28.5 4.3 15 16.3 S 26 35 14 19 1011.5 1009.9 0.0
27/07:00pm 34.8 29.2 3.4 14 16.6 S 22 33 12 18 1011.2 1009.6 0.0
27/06:30pm 35.7 30.2 4.1 14 16.9 SSW 22 32 12 17 1011.2 1009.6 0.0
27/06:00pm 35.3 29.8 3.8 14 16.8 S 22 32 12 17 1011.1 1009.5 0.0
27/05:30pm 35.2 30.2 3.7 14 16.7 S 19 33 10 18 1011.3 1009.7 0.0
27/05:00pm 35.8 31.7 4.2 14 17.0 S 15 30 8 16 1011.4 1009.8 0.0
27/04:30pm 35.3 30.0 4.8 15 16.5 S 22 39 12 21 1011.6 1010.0 0.0
27/04:00pm 35.2 28.9 3.7 14 16.7 SSE 26 43 14 23 1012.2 1010.5 0.0
27/03:30pm 35.3 29.6 4.8 15 16.5 SSE 24 39 13 21 1012.4 1010.7 0.0
27/03:00pm 35.5 30.7 4.9 15 16.6 S 19 39 10 21 1012.7 1011.0 0.0
27/02:30pm 34.6 29.7 5.1 16 16.0 S 20 30 11 16 1013.1 1011.4 0.0
27/02:00pm 34.4 29.1 5.0 16 15.9 SSE 22 39 12 21 1013.5 1011.8 0.0
27/01:30pm 33.5 29.0 5.9 18 15.0 SSE 19 33 10 18 1013.8 1012.1 0.0
27/01:00pm 33.2 28.8 6.5 19 14.7 ESE 19 30 10 16 1013.9 1012.2 0.0
27/12:30pm 32.2 28.1 7.8 22 13.6 ESE 19 28 10 15 1014.2 1012.5 0.0
27/12:00pm 30.9 26.8 8.0 24 12.7 SE 19 26 10 14 1014.5 1012.9 0.0
27/11:30am 30.1 26.2 8.5 26 12.1 SE 19 28 10 15 1014.9 1013.3 0.0
27/11:00am 29.3 25.1 8.4 27 11.6 SE 20 26 11 14 1015.3 1013.7 0.0
27/10:30am 26.8 22.5 7.8 30 10.3 SSE 20 30 11 16 1015.6 1013.9 0.0
27/10:00am 25.8 21.5 7.9 32 9.7 SSE 20 30 11 16 1016.0 1014.3 0.0
27/09:30am 25.3 20.4 8.3 34 9.2 S 24 30 13 16 1016.0 1014.3 0.0
27/09:00am 24.6 18.9 8.5 36 8.7 S 28 33 15 18 1015.5 1013.8 0.0
27/08:30am 23.7 19.2 8.6 38 8.2 S 22 30 12 16 1015.1 1013.5 0.0
27/08:00am 22.3 19.0 8.1 40 7.6 SSW 15 20 8 11 1014.9 1013.3 0.0
27/07:30am 21.1 18.2 8.0 43 6.9 SSW 13 17 7 9 1014.5 1012.9 0.0
27/07:00am 20.7 18.2 8.0 44 6.7 SW 11 13 6 7 1014.3 1012.7 0.0
27/06:30am 21.1 18.6 8.0 43 6.9 W 11 13 6 7 1014.0 1012.3 0.0
27/06:00am 22.4 18.7 8.1 40 7.6 S 17 20 9 11 1013.6 1011.9 0.0
27/05:30am 22.9 18.9 8.2 39 7.9 SSE 19 20 10 11 1013.2 1011.5 0.0
27/05:00am 23.9 19.7 8.3 37 8.4 SSE 20 28 11 15 1013.1 1011.4 0.0
27/04:30am 24.3 19.4 8.3 36 8.6 SSE 24 30 13 16 1013.2 1011.5 0.0
27/04:00am 24.8 19.1 8.3 35 8.9 SSE 28 32 15 17 1013.3 1011.6 0.0
27/03:30am 25.3 19.7 8.7 35 9.1 SSE 28 33 15 18 1013.3 1011.6 0.0
27/03:00am 25.7 20.5 8.7 34 9.3 SSE 26 33 14 18 1013.5 1011.8 0.0
27/02:30am 26.0 21.0 8.0 32 9.8 S 24 32 13 17 1013.6 1011.9 0.0
27/02:00am 26.3 21.5 7.4 30 10.2 S 22 26 12 14 1013.6 1011.9 0.0
27/01:30am 26.9 22.4 6.9 28 10.7 S 20 24 11 13 1013.6 1011.9 0.0
27/01:00am 27.3 22.7 6.7 27 11.0 SSE 20 24 11 13 1013.7 1012.0 0.0
27/12:30am 27.7 22.6 5.9 25 11.5 SSE 22 30 12 16 1013.7 1012.0 0.0
27/12:00am 28.2 22.7 5.7 24 11.9 S 24 30 13 16 1013.7 1012.0 0.0
 
Date/Time
EDT
Temp
°C
App
Temp
°C
Dew
Point
°C
Rel
Hum
%
Delta-T
°C
Wind Press
QNH
hPa
Press
MSL
hPa
Rain since
9am
mm
Dir  Spd
km/h
Gust
km/h
Spd
kts
Gust
kts
26/11:30pm 28.4 23.2 5.3 23 12.1 S 22 26 12 14 1013.7 1012.0 0.0
26/11:00pm 28.9 23.6 5.1 22 12.5 S 22 28 12 15 1013.7 1012.0 0.0
26/10:30pm 29.2 24.5 5.3 22 12.6 SSE 19 24 10 13 1013.6 1011.9 0.0
26/10:00pm 29.8 25.1 5.1 21 13.0 SSE 19 24 10 13 1013.4 1011.7 0.0
26/09:30pm 30.3 25.4 4.1 19 13.6 SSE 19 22 10 12 1013.2 1011.5 0.0
26/09:00pm 30.9 25.5 4.6 19 13.8 SSE 22 28 12 15 1012.7 1011.0 0.0
26/08:30pm 31.6 25.4 4.4 18 14.3 S 26 33 14 18 1012.2 1010.5 0.0
26/08:00pm 32.4 26.6 4.2 17 14.9 S 24 33 13 18 1011.6 1010.0 0.0
26/07:30pm 32.8 27.0 4.6 17 15.0 S 24 33 13 18 1011.4 1009.8 0.0

Other formats

Comma delimited format used in spreadsheet applications
http://www.bom.gov.au/fwo/IDN60801/IDN60801.94691.axf

JavaScript Object Notation format (JSON) in row-major order
http://www.bom.gov.au/fwo/IDN60801/IDN60801.94691.json

Data quality

Most of these data are generated automatically and are frequently updated. Quality checks on data are not normally performed. It is possible for incorrect values to appear. Refer to information at About Latest Weather Observations and please check the disclaimer before using these data.